De Peyster, New York
Current Conditions -  °F | °C
As of 8:13 AM on Friday 28 Nov 2014 (Local Time) from KGTB Reporting Station
Light Snow Light Snow  
Wind Chill: 19°   Ceiling: 2000
Heat Index: 19°   Visibility: 3mi
Dew Point: 18°   Wind: 3mph
Humidity: 93%   Direction: 260°W
Pressure: 30.14"   Gusts: NA
Location:  44.55°N, 75.43°W
Report Text: KGTB 281313Z AUTO 26003KT 3SM -SN BR BKN020 OVC036 M07/M08 A3014 RMK AO2 CIG 020V036 BKN V SCT
Loading
Personal Weather Stations






























Interactive Weather Map New forecast layout! Learn more

10-Day Weather Forecast

Advertisements
Track Severe Weather on mobile